sensor_id;sensor_type;location;lat;lon;timestamp;pressure;altitude;pressure_sealevel;temperature;humidity
66479;BME280;53294;47.912;13.526;2023-04-24T00:02:21;95296.34;;;12.95;66.31
66479;BME280;53294;47.912;13.526;2023-04-24T00:04:48;95286.06;;;13.22;65.36
66479;BME280;53294;47.912;13.526;2023-04-24T00:07:15;95296.91;;;13.34;66.07
66479;BME280;53294;47.912;13.526;2023-04-24T00:09:46;95286.81;;;13.43;64.93
66479;BME280;53294;47.912;13.526;2023-04-24T00:12:13;95285.25;;;13.67;64.18
66479;BME280;53294;47.912;13.526;2023-04-24T00:14:40;95290.81;;;13.83;63.21
66479;BME280;53294;47.912;13.526;2023-04-24T00:17:06;95291.34;;;13.89;63.58
66479;BME280;53294;47.912;13.526;2023-04-24T00:19:33;95295.28;;;14.04;62.64
66479;BME280;53294;47.912;13.526;2023-04-24T00:22:00;95298.31;;;14.14;62.02
66479;BME280;53294;47.912;13.526;2023-04-24T00:24:26;95299.22;;;14.18;62.17
66479;BME280;53294;47.912;13.526;2023-04-24T00:26:53;95288.63;;;14.26;61.77
66479;BME280;53294;47.912;13.526;2023-04-24T00:29:20;95291.91;;;14.07;62.87
66479;BME280;53294;47.912;13.526;2023-04-24T00:31:47;95293.25;;;14.13;62.70
66479;BME280;53294;47.912;13.526;2023-04-24T00:34:13;95291.81;;;14.15;63.13
66479;BME280;53294;47.912;13.526;2023-04-24T00:36:40;95285.56;;;14.27;61.88
66479;BME280;53294;47.912;13.526;2023-04-24T00:39:07;95286.38;;;14.28;62.58
66479;BME280;53294;47.912;13.526;2023-04-24T00:41:37;95286.16;;;14.21;62.81
66479;BME280;53294;47.912;13.526;2023-04-24T00:44:03;95285.94;;;14.13;62.96
66479;BME280;53294;47.912;13.526;2023-04-24T00:46:31;95287.25;;;14.32;61.60
66479;BME280;53294;47.912;13.526;2023-04-24T00:48:59;95282.75;;;14.36;62.04
66479;BME280;53294;47.912;13.526;2023-04-24T00:51:25;95284.53;;;14.44;61.51
66479;BME280;53294;47.912;13.526;2023-04-24T00:53:53;95276.75;;;14.55;61.08
66479;BME280;53294;47.912;13.526;2023-04-24T00:56:20;95270.00;;;14.49;61.38
66479;BME280;53294;47.912;13.526;2023-04-24T00:58:47;95277.00;;;14.38;62.14
66479;BME280;53294;47.912;13.526;2023-04-24T01:01:14;95268.88;;;13.85;64.78
66479;BME280;53294;47.912;13.526;2023-04-24T01:03:41;95269.53;;;13.69;64.55
66479;BME280;53294;47.912;13.526;2023-04-24T01:06:09;95268.19;;;13.63;64.84
66479;BME280;53294;47.912;13.526;2023-04-24T01:08:36;95264.00;;;13.65;64.42
66479;BME280;53294;47.912;13.526;2023-04-24T01:11:04;95265.03;;;13.61;64.36
66479;BME280;53294;47.912;13.526;2023-04-24T01:13:32;95262.22;;;13.82;63.33
66479;BME280;53294;47.912;13.526;2023-04-24T01:15:59;95265.16;;;13.89;63.35
66479;BME280;53294;47.912;13.526;2023-04-24T01:18:27;95263.91;;;13.74;63.26
66479;BME280;53294;47.912;13.526;2023-04-24T01:20:58;95272.25;;;13.94;62.11
66479;BME280;53294;47.912;13.526;2023-04-24T01:23:26;95271.34;;;13.90;62.66
66479;BME280;53294;47.912;13.526;2023-04-24T01:25:53;95265.50;;;13.75;62.67
66479;BME280;53294;47.912;13.526;2023-04-24T01:28:19;95266.16;;;13.97;61.85
66479;BME280;53294;47.912;13.526;2023-04-24T01:30:46;95264.34;;;13.89;62.62
66479;BME280;53294;47.912;13.526;2023-04-24T01:33:13;95264.16;;;13.94;62.29
66479;BME280;53294;47.912;13.526;2023-04-24T01:35:41;95264.34;;;14.13;61.49
66479;BME280;53294;47.912;13.526;2023-04-24T01:38:08;95269.53;;;13.57;65.05
66479;BME280;53294;47.912;13.526;2023-04-24T01:40:35;95264.59;;;13.59;65.52
66479;BME280;53294;47.912;13.526;2023-04-24T01:43:02;95278.03;;;12.67;68.26
66479;BME280;53294;47.912;13.526;2023-04-24T01:45:28;95268.44;;;12.79;67.84
66479;BME280;53294;47.912;13.526;2023-04-24T01:47:56;95266.47;;;12.67;67.97
66479;BME280;53294;47.912;13.526;2023-04-24T01:50:23;95266.44;;;12.88;66.92
66479;BME280;53294;47.912;13.526;2023-04-24T01:52:50;95267.88;;;13.31;63.87
66479;BME280;53294;47.912;13.526;2023-04-24T01:55:16;95260.97;;;13.55;63.03
66479;BME280;53294;47.912;13.526;2023-04-24T01:57:43;95257.50;;;13.67;62.81
66479;BME280;53294;47.912;13.526;2023-04-24T02:00:10;95253.34;;;13.69;63.35
66479;BME280;53294;47.912;13.526;2023-04-24T02:02:40;95257.84;;;13.65;62.79
66479;BME280;53294;47.912;13.526;2023-04-24T02:05:09;95257.84;;;13.65;63.39
66479;BME280;53294;47.912;13.526;2023-04-24T02:07:37;95256.50;;;13.71;63.35
66479;BME280;53294;47.912;13.526;2023-04-24T02:10:04;95260.44;;;12.49;67.05
66479;BME280;53294;47.912;13.526;2023-04-24T02:12:31;95261.63;;;12.60;67.16
66479;BME280;53294;47.912;13.526;2023-04-24T02:14:57;95256.63;;;12.50;67.61
66479;BME280;53294;47.912;13.526;2023-04-24T02:17:24;95263.34;;;12.44;67.90
66479;BME280;53294;47.912;13.526;2023-04-24T02:19:51;95251.31;;;12.62;66.57
66479;BME280;53294;47.912;13.526;2023-04-24T02:22:17;95250.84;;;12.60;66.89
66479;BME280;53294;47.912;13.526;2023-04-24T02:24:44;95247.44;;;12.51;67.40
66479;BME280;53294;47.912;13.526;2023-04-24T02:27:11;95250.97;;;12.43;68.26
66479;BME280;53294;47.912;13.526;2023-04-24T02:29:38;95259.69;;;11.67;72.13
66479;BME280;53294;47.912;13.526;2023-04-24T02:32:04;95247.06;;;11.59;72.90
66479;BME280;53294;47.912;13.526;2023-04-24T02:34:31;95251.16;;;11.18;74.43
66479;BME280;53294;47.912;13.526;2023-04-24T02:36:58;95256.34;;;10.76;75.99
66479;BME280;53294;47.912;13.526;2023-04-24T02:39:24;95246.38;;;10.85;74.85
66479;BME280;53294;47.912;13.526;2023-04-24T02:41:51;95241.38;;;11.13;73.35
66479;BME280;53294;47.912;13.526;2023-04-24T02:44:17;95238.59;;;11.40;72.25
66479;BME280;53294;47.912;13.526;2023-04-24T02:46:44;95241.38;;;11.13;72.71
66479;BME280;53294;47.912;13.526;2023-04-24T02:49:11;95241.81;;;10.68;74.85
66479;BME280;53294;47.912;13.526;2023-04-24T02:51:38;95244.81;;;10.32;76.12
66479;BME280;53294;47.912;13.526;2023-04-24T02:54:08;95242.59;;;10.16;76.33
66479;BME280;53294;47.912;13.526;2023-04-24T02:56:37;95249.53;;;10.17;76.69
66479;BME280;53294;47.912;13.526;2023-04-24T02:59:04;95249.84;;;10.16;76.80
66479;BME280;53294;47.912;13.526;2023-04-24T03:01:31;95235.97;;;10.22;76.59
66479;BME280;53294;47.912;13.526;2023-04-24T03:03:57;95241.97;;;10.54;74.50
66479;BME280;53294;47.912;13.526;2023-04-24T03:06:24;95239.75;;;10.65;73.94
66479;BME280;53294;47.912;13.526;2023-04-24T03:08:53;95236.44;;;10.68;73.51
66479;BME280;53294;47.912;13.526;2023-04-24T03:11:20;95232.66;;;10.60;73.98
66479;BME280;53294;47.912;13.526;2023-04-24T03:13:47;95230.31;;;10.50;73.77
66479;BME280;53294;47.912;13.526;2023-04-24T03:16:13;95233.13;;;10.63;72.80
66479;BME280;53294;47.912;13.526;2023-04-24T03:18:40;95236.44;;;10.68;72.01
66479;BME280;53294;47.912;13.526;2023-04-24T03:21:07;95237.97;;;10.87;70.98
66479;BME280;53294;47.912;13.526;2023-04-24T03:23:33;95234.34;;;10.91;71.86
66479;BME280;53294;47.912;13.526;2023-04-24T03:26:00;95229.47;;;10.76;73.07
66479;BME280;53294;47.912;13.526;2023-04-24T03:28:27;95220.31;;;10.77;72.49
66479;BME280;53294;47.912;13.526;2023-04-24T03:30:53;95230.47;;;10.54;73.13
66479;BME280;53294;47.912;13.526;2023-04-24T03:33:20;95230.28;;;10.15;74.91
66479;BME280;53294;47.912;13.526;2023-04-24T03:35:47;95232.81;;;10.20;74.81
66479;BME280;53294;47.912;13.526;2023-04-24T03:38:13;95241.34;;;10.22;74.81
66479;BME280;53294;47.912;13.526;2023-04-24T03:40:40;95240.09;;;10.29;74.42
66479;BME280;53294;47.912;13.526;2023-04-24T03:43:06;95245.31;;;10.34;74.05
66479;BME280;53294;47.912;13.526;2023-04-24T03:45:33;95253.63;;;10.23;74.10
66479;BME280;53294;47.912;13.526;2023-04-24T03:48:00;95255.84;;;10.04;75.58
66479;BME280;53294;47.912;13.526;2023-04-24T03:50:26;95259.00;;;10.06;75.99
66479;BME280;53294;47.912;13.526;2023-04-24T03:52:55;95259.47;;;10.17;74.70
66479;BME280;53294;47.912;13.526;2023-04-24T03:55:22;95272.25;;;10.11;75.36
66479;BME280;53294;47.912;13.526;2023-04-24T03:57:48;95261.38;;;10.07;75.60
66479;BME280;53294;47.912;13.526;2023-04-24T04:00:15;95265.81;;;10.21;74.92
66479;BME280;53294;47.912;13.526;2023-04-24T04:02:42;95263.28;;;10.24;74.62
66479;BME280;53294;47.912;13.526;2023-04-24T04:05:09;95270.41;;;10.55;72.58
66479;BME280;53294;47.912;13.526;2023-04-24T04:07:35;95269.09;;;10.96;70.38
66479;BME280;53294;47.912;13.526;2023-04-24T04:10:02;95263.06;;;11.17;69.39
66479;BME280;53294;47.912;13.526;2023-04-24T04:12:29;95258.91;;;11.28;68.83
66479;BME280;53294;47.912;13.526;2023-04-24T04:14:56;95262.34;;;11.38;68.80
66479;BME280;53294;47.912;13.526;2023-04-24T04:17:23;95268.81;;;11.37;69.21
66479;BME280;53294;47.912;13.526;2023-04-24T04:19:49;95263.22;;;11.59;68.28
66479;BME280;53294;47.912;13.526;2023-04-24T04:22:17;95265.69;;;11.64;68.13
66479;BME280;53294;47.912;13.526;2023-04-24T04:24:43;95265.47;;;11.78;67.53
66479;BME280;53294;47.912;13.526;2023-04-24T04:27:10;95266.13;;;11.75;67.99
66479;BME280;53294;47.912;13.526;2023-04-24T04:29:37;95267.97;;;11.92;66.78
66479;BME280;53294;47.912;13.526;2023-04-24T04:32:04;95262.47;;;11.80;67.77
66479;BME280;53294;47.912;13.526;2023-04-24T04:34:31;95270.47;;;11.20;69.82
66479;BME280;53294;47.912;13.526;2023-04-24T04:36:59;95274.66;;;11.39;69.21
66479;BME280;53294;47.912;13.526;2023-04-24T04:39:28;95278.72;;;11.06;70.94
66479;BME280;53294;47.912;13.526;2023-04-24T04:41:54;95280.66;;;10.97;71.36
66479;BME280;53294;47.912;13.526;2023-04-24T04:44:21;95285.38;;;10.91;71.46
66479;BME280;53294;47.912;13.526;2023-04-24T04:46:48;95289.38;;;10.68;72.43
66479;BME280;53294;47.912;13.526;2023-04-24T04:49:15;95284.59;;;10.82;71.25
66479;BME280;53294;47.912;13.526;2023-04-24T04:51:43;95289.38;;;10.68;72.50
66479;BME280;53294;47.912;13.526;2023-04-24T04:54:09;95289.19;;;10.82;71.93
66479;BME280;53294;47.912;13.526;2023-04-24T04:56:36;95286.16;;;10.92;70.98
66479;BME280;53294;47.912;13.526;2023-04-24T04:59:03;95284.63;;;10.65;72.52
66479;BME280;53294;47.912;13.526;2023-04-24T05:01:29;95285.19;;;10.09;75.50
66479;BME280;53294;47.912;13.526;2023-04-24T05:03:56;95288.78;;;9.96;76.11
66479;BME280;53294;47.912;13.526;2023-04-24T05:06:23;95295.91;;;9.92;76.16
66479;BME280;53294;47.912;13.526;2023-04-24T05:08:50;95295.63;;;10.28;74.21
66479;BME280;53294;47.912;13.526;2023-04-24T05:11:17;95302.88;;;10.10;75.67
66479;BME280;53294;47.912;13.526;2023-04-24T05:13:44;95305.97;;;9.77;77.68
66479;BME280;53294;47.912;13.526;2023-04-24T05:16:10;95297.34;;;10.06;75.75
66479;BME280;53294;47.912;13.526;2023-04-24T05:18:37;95307.28;;;10.06;76.17
66479;BME280;53294;47.912;13.526;2023-04-24T05:21:04;95304.00;;;10.18;75.45
66479;BME280;53294;47.912;13.526;2023-04-24T05:23:30;95306.38;;;10.19;76.11
66479;BME280;53294;47.912;13.526;2023-04-24T05:25:57;95311.19;;;9.91;77.74
66479;BME280;53294;47.912;13.526;2023-04-24T05:28:24;95311.09;;;10.14;76.31
66479;BME280;53294;47.912;13.526;2023-04-24T05:30:55;95302.66;;;10.38;75.21
66479;BME280;53294;47.912;13.526;2023-04-24T05:33:22;95304.53;;;10.46;74.50
66479;BME280;53294;47.912;13.526;2023-04-24T05:35:49;95303.09;;;10.40;75.70
66479;BME280;53294;47.912;13.526;2023-04-24T05:38:16;95312.88;;;10.27;75.70
66479;BME280;53294;47.912;13.526;2023-04-24T05:40:46;95306.53;;;10.23;75.67
66479;BME280;53294;47.912;13.526;2023-04-24T05:43:13;95310.50;;;10.26;75.31
66479;BME280;53294;47.912;13.526;2023-04-24T05:45:39;95310.69;;;10.55;74.06
66479;BME280;53294;47.912;13.526;2023-04-24T05:48:06;95318.09;;;10.76;72.65
66479;BME280;53294;47.912;13.526;2023-04-24T05:50:33;95317.63;;;10.91;72.33
66479;BME280;53294;47.912;13.526;2023-04-24T05:53:02;95317.63;;;11.00;71.78
66479;BME280;53294;47.912;13.526;2023-04-24T05:55:30;95310.94;;;11.24;70.81
66479;BME280;53294;47.912;13.526;2023-04-24T05:57:57;95310.84;;;11.50;69.89
66479;BME280;53294;47.912;13.526;2023-04-24T06:00:24;95311.63;;;11.59;69.72
66479;BME280;53294;47.912;13.526;2023-04-24T06:02:51;95310.13;;;11.79;69.26
66479;BME280;53294;47.912;13.526;2023-04-24T06:05:19;95309.72;;;11.90;69.41
66479;BME280;53294;47.912;13.526;2023-04-24T06:07:47;95314.31;;;11.89;69.56
66479;BME280;53294;47.912;13.526;2023-04-24T06:10:14;95314.25;;;12.07;68.71
66479;BME280;53294;47.912;13.526;2023-04-24T06:12:41;95311.13;;;12.05;68.76
66479;BME280;53294;47.912;13.526;2023-04-24T06:15:08;95316.56;;;11.48;69.95
66479;BME280;53294;47.912;13.526;2023-04-24T06:17:35;95316.91;;;11.38;71.10
66479;BME280;53294;47.912;13.526;2023-04-24T06:20:01;95320.47;;;11.51;69.67
66479;BME280;53294;47.912;13.526;2023-04-24T06:22:31;95327.28;;;10.92;72.04
66479;BME280;53294;47.912;13.526;2023-04-24T06:24:59;95317.00;;;10.59;73.42
66479;BME280;53294;47.912;13.526;2023-04-24T06:27:26;95324.59;;;10.40;73.00
66479;BME280;53294;47.912;13.526;2023-04-24T06:29:53;95327.22;;;10.22;73.72
66479;BME280;53294;47.912;13.526;2023-04-24T06:32:22;95330.53;;;10.28;74.03
66479;BME280;53294;47.912;13.526;2023-04-24T06:34:53;95336.34;;;10.04;75.52
66479;BME280;53294;47.912;13.526;2023-04-24T06:37:20;95330.47;;;10.02;75.46
66479;BME280;53294;47.912;13.526;2023-04-24T06:39:47;95329.78;;;9.79;76.47
66479;BME280;53294;47.912;13.526;2023-04-24T06:42:13;95332.34;;;9.93;75.46
66479;BME280;53294;47.912;13.526;2023-04-24T06:44:40;95319.28;;;10.00;75.27
66479;BME280;53294;47.912;13.526;2023-04-24T06:47:08;95334.91;;;9.98;75.76
66479;BME280;53294;47.912;13.526;2023-04-24T06:49:36;95330.47;;;10.02;76.42
66479;BME280;53294;47.912;13.526;2023-04-24T06:52:04;95331.81;;;9.73;76.58
66479;BME280;53294;47.912;13.526;2023-04-24T06:54:31;95327.75;;;9.84;76.40
66479;BME280;53294;47.912;13.526;2023-04-24T06:56:59;95331.41;;;9.88;76.62
66479;BME280;53294;47.912;13.526;2023-04-24T06:59:27;95331.22;;;9.85;77.41
66479;BME280;53294;47.912;13.526;2023-04-24T07:01:55;95328.81;;;9.75;77.15
66479;BME280;53294;47.912;13.526;2023-04-24T07:04:21;95338.69;;;9.97;76.18
66479;BME280;53294;47.912;13.526;2023-04-24T07:06:48;95333.53;;;10.18;75.87
66479;BME280;53294;47.912;13.526;2023-04-24T07:09:15;95340.88;;;9.95;75.75
66479;BME280;53294;47.912;13.526;2023-04-24T07:11:45;95339.44;;;9.88;76.01
66479;BME280;53294;47.912;13.526;2023-04-24T07:14:12;95347.19;;;9.99;75.83
66479;BME280;53294;47.912;13.526;2023-04-24T07:16:39;95340.47;;;10.19;74.24
66479;BME280;53294;47.912;13.526;2023-04-24T07:19:06;95350.09;;;10.20;74.83
66479;BME280;53294;47.912;13.526;2023-04-24T07:21:33;95340.13;;;10.03;74.54
66479;BME280;53294;47.912;13.526;2023-04-24T07:24:00;95345.47;;;10.03;75.42
66479;BME280;53294;47.912;13.526;2023-04-24T07:26:29;95343.59;;;10.12;74.92
66479;BME280;53294;47.912;13.526;2023-04-24T07:28:56;95347.81;;;9.96;75.68
66479;BME280;53294;47.912;13.526;2023-04-24T07:31:23;95353.69;;;9.98;76.17
66479;BME280;53294;47.912;13.526;2023-04-24T07:33:49;95357.13;;;9.98;76.05
66479;BME280;53294;47.912;13.526;2023-04-24T07:36:16;95353.09;;;10.18;74.98
66479;BME280;53294;47.912;13.526;2023-04-24T07:38:46;95353.72;;;10.15;74.69
66479;BME280;53294;47.912;13.526;2023-04-24T07:41:13;95352.44;;;10.04;74.82
66479;BME280;53294;47.912;13.526;2023-04-24T07:43:41;95356.59;;;10.28;74.38
66479;BME280;53294;47.912;13.526;2023-04-24T07:46:08;95358.69;;;10.48;73.80
66479;BME280;53294;47.912;13.526;2023-04-24T07:48:36;95351.28;;;10.63;73.63
66479;BME280;53294;47.912;13.526;2023-04-24T07:51:02;95355.53;;;10.46;72.41
66479;BME280;53294;47.912;13.526;2023-04-24T07:53:30;95359.81;;;10.47;73.08
66479;BME280;53294;47.912;13.526;2023-04-24T07:55:57;95355.72;;;10.58;72.97
66479;BME280;53294;47.912;13.526;2023-04-24T07:58:24;95356.34;;;10.38;73.86
66479;BME280;53294;47.912;13.526;2023-04-24T08:00:50;95358.81;;;10.26;74.31
66479;BME280;53294;47.912;13.526;2023-04-24T08:03:17;95360.56;;;10.39;73.76
66479;BME280;53294;47.912;13.526;2023-04-24T08:05:46;95359.50;;;10.57;74.52
66479;BME280;53294;47.912;13.526;2023-04-24T08:08:13;95350.56;;;10.22;74.11
66479;BME280;53294;47.912;13.526;2023-04-24T08:10:40;95354.38;;;10.30;75.20
66479;BME280;53294;47.912;13.526;2023-04-24T08:13:07;95351.75;;;10.38;75.55
66479;BME280;53294;47.912;13.526;2023-04-24T08:15:34;95351.69;;;10.21;75.34
66479;BME280;53294;47.912;13.526;2023-04-24T08:18:01;95361.78;;;10.15;75.42
66479;BME280;53294;47.912;13.526;2023-04-24T08:20:27;95360.56;;;10.39;75.29
66479;BME280;53294;47.912;13.526;2023-04-24T08:22:54;95361.06;;;10.41;75.39
66479;BME280;53294;47.912;13.526;2023-04-24T08:25:21;95365.34;;;10.51;75.25
66479;BME280;53294;47.912;13.526;2023-04-24T08:27:49;95363.59;;;10.64;75.49
66479;BME280;53294;47.912;13.526;2023-04-24T08:30:16;95365.97;;;10.48;74.91
66479;BME280;53294;47.912;13.526;2023-04-24T08:32:42;95360.09;;;10.37;76.41
66479;BME280;53294;47.912;13.526;2023-04-24T08:35:09;95361.34;;;10.31;74.48
66479;BME280;53294;47.912;13.526;2023-04-24T08:37:36;95371.03;;;10.49;75.15
66479;BME280;53294;47.912;13.526;2023-04-24T08:40:08;95357.91;;;10.56;76.11
66479;BME280;53294;47.912;13.526;2023-04-24T08:42:39;95370.88;;;10.72;75.77
66479;BME280;53294;47.912;13.526;2023-04-24T08:45:06;95370.72;;;10.77;76.20
66479;BME280;53294;47.912;13.526;2023-04-24T08:47:35;95365.50;;;10.72;75.26
66479;BME280;53294;47.912;13.526;2023-04-24T08:50:05;95370.72;;;10.86;75.85
66479;BME280;53294;47.912;13.526;2023-04-24T08:52:33;95371.19;;;10.96;75.05
66479;BME280;53294;47.912;13.526;2023-04-24T08:55:00;95365.34;;;11.21;73.04
66479;BME280;53294;47.912;13.526;2023-04-24T08:57:28;95376.22;;;11.24;72.45
66479;BME280;53294;47.912;13.526;2023-04-24T08:59:56;95382.28;;;10.86;72.67
66479;BME280;53294;47.912;13.526;2023-04-24T09:02:26;95371.06;;;11.02;75.93
66479;BME280;53294;47.912;13.526;2023-04-24T09:04:53;95374.94;;;11.30;72.79
66479;BME280;53294;47.912;13.526;2023-04-24T09:07:24;95371.56;;;11.68;72.08
66479;BME280;53294;47.912;13.526;2023-04-24T09:09:52;95366.88;;;11.39;71.13
66479;BME280;53294;47.912;13.526;2023-04-24T09:12:19;95377.78;;;11.43;70.45
66479;BME280;53294;47.912;13.526;2023-04-24T09:14:47;95365.16;;;11.35;71.06
66479;BME280;53294;47.912;13.526;2023-04-24T09:17:14;95377.22;;;11.11;71.04
66479;BME280;53294;47.912;13.526;2023-04-24T09:19:41;95382.41;;;11.25;71.04
66479;BME280;53294;47.912;13.526;2023-04-24T09:22:09;95374.13;;;11.47;70.25
66479;BME280;53294;47.912;13.526;2023-04-24T09:24:36;95374.44;;;11.46;70.64
66479;BME280;53294;47.912;13.526;2023-04-24T09:27:03;95374.63;;;11.41;69.71
66479;BME280;53294;47.912;13.526;2023-04-24T09:29:30;95375.53;;;11.54;69.41
66479;BME280;53294;47.912;13.526;2023-04-24T09:31:58;95364.16;;;11.48;69.20
66479;BME280;53294;47.912;13.526;2023-04-24T09:34:26;95378.09;;;11.50;67.38
66479;BME280;53294;47.912;13.526;2023-04-24T09:36:54;95378.56;;;11.52;69.17
66479;BME280;53294;47.912;13.526;2023-04-24T09:39:21;95362.63;;;11.85;68.74
66479;BME280;53294;47.912;13.526;2023-04-24T09:41:52;95372.31;;;11.78;68.32
66479;BME280;53294;47.912;13.526;2023-04-24T09:44:21;95364.50;;;11.94;67.19
66479;BME280;53294;47.912;13.526;2023-04-24T09:46:54;95362.28;;;11.96;67.53
66479;BME280;53294;47.912;13.526;2023-04-24T09:49:29;95371.63;;;11.98;68.92
66479;BME280;53294;47.912;13.526;2023-04-24T09:52:12;95370.53;;;12.29;66.88
66479;BME280;53294;47.912;13.526;2023-04-24T09:54:39;95358.56;;;12.39;66.33
66479;BME280;53294;47.912;13.526;2023-04-24T09:57:07;95366.19;;;12.37;66.96
66479;BME280;53294;47.912;13.526;2023-04-24T09:59:34;95377.38;;;12.48;66.71
66479;BME280;53294;47.912;13.526;2023-04-24T10:02:03;95369.97;;;12.45;65.84
66479;BME280;53294;47.912;13.526;2023-04-24T10:04:33;95370.88;;;12.19;65.52
66479;BME280;53294;47.912;13.526;2023-04-24T10:07:03;95375.06;;;12.08;66.81
66479;BME280;53294;47.912;13.526;2023-04-24T10:09:33;95370.09;;;12.18;66.41
66479;BME280;53294;47.912;13.526;2023-04-24T10:12:00;95376.56;;;12.26;66.55
66479;BME280;53294;47.912;13.526;2023-04-24T10:14:29;95368.97;;;11.81;67.71
66479;BME280;53294;47.912;13.526;2023-04-24T10:16:56;95373.53;;;11.89;68.46
66479;BME280;53294;47.912;13.526;2023-04-24T10:19:25;95375.41;;;11.97;68.66
66479;BME280;53294;47.912;13.526;2023-04-24T10:21:53;95370.09;;;11.71;68.80
66479;BME280;53294;47.912;13.526;2023-04-24T10:24:22;95376.81;;;11.47;69.76
66479;BME280;53294;47.912;13.526;2023-04-24T10:26:48;95368.25;;;11.54;70.03
66479;BME280;53294;47.912;13.526;2023-04-24T10:29:17;95366.31;;;11.63;70.00
66479;BME280;53294;47.912;13.526;2023-04-24T10:31:44;95366.16;;;11.68;70.43
66479;BME280;53294;47.912;13.526;2023-04-24T10:34:16;95360.25;;;11.84;69.11
66479;BME280;53294;47.912;13.526;2023-04-24T10:36:47;95354.06;;;12.22;69.40
66479;BME280;53294;47.912;13.526;2023-04-24T10:39:15;95362.25;;;12.34;66.93
66479;BME280;53294;47.912;13.526;2023-04-24T10:41:43;95349.38;;;12.40;67.47
66479;BME280;53294;47.912;13.526;2023-04-24T10:44:12;95345.63;;;12.96;67.46
66479;BME280;53294;47.912;13.526;2023-04-24T10:46:44;95348.97;;;13.35;66.90
66479;BME280;53294;47.912;13.526;2023-04-24T10:49:11;95348.84;;;13.10;66.18
66479;BME280;53294;47.912;13.526;2023-04-24T10:51:49;95347.91;;;13.27;66.47
66479;BME280;53294;47.912;13.526;2023-04-24T11:00:20;95356.75;;;12.94;68.05
66479;BME280;53294;47.912;13.526;2023-04-24T11:02:48;95369.75;;;12.92;68.24
66479;BME280;53294;47.912;13.526;2023-04-24T11:05:17;95377.78;;;12.80;69.00
66479;BME280;53294;47.912;13.526;2023-04-24T11:08:13;95381.75;;;12.31;71.16
66479;BME280;53294;47.912;13.526;2023-04-24T11:13:16;95381.47;;;12.24;70.31
66479;BME280;53294;47.912;13.526;2023-04-24T11:15:43;95375.41;;;12.27;70.16
66479;BME280;53294;47.912;13.526;2023-04-24T11:18:14;95375.16;;;12.20;71.03
66479;BME280;53294;47.912;13.526;2023-04-24T11:20:43;95376.63;;;12.09;71.07
66479;BME280;53294;47.912;13.526;2023-04-24T11:23:12;95374.41;;;12.11;71.35
66479;BME280;53294;47.912;13.526;2023-04-24T11:25:39;95371.34;;;12.21;71.65
66479;BME280;53294;47.912;13.526;2023-04-24T11:28:05;95377.94;;;12.02;72.60
66479;BME280;53294;47.912;13.526;2023-04-24T11:30:32;95377.81;;;11.90;73.09
66479;BME280;53294;47.912;13.526;2023-04-24T11:33:03;95385.06;;;11.90;73.21
66479;BME280;53294;47.912;13.526;2023-04-24T11:35:35;95390.31;;;11.86;72.46
66479;BME280;53294;47.912;13.526;2023-04-24T11:38:06;95414.31;;;11.35;72.57
66479;BME280;53294;47.912;13.526;2023-04-24T11:40:49;95445.19;;;10.94;72.76
66479;BME280;53294;47.912;13.526;2023-04-24T11:43:16;95437.72;;;10.73;71.03
66479;BME280;53294;47.912;13.526;2023-04-24T11:45:48;95453.28;;;10.36;72.45
66479;BME280;53294;47.912;13.526;2023-04-24T11:48:20;95440.19;;;10.35;72.90
66479;BME280;53294;47.912;13.526;2023-04-24T11:50:50;95442.84;;;10.35;72.67
66479;BME280;53294;47.912;13.526;2023-04-24T11:53:19;95434.06;;;10.60;72.27
66479;BME280;53294;47.912;13.526;2023-04-24T11:55:47;95429.38;;;10.92;71.52
66479;BME280;53294;47.912;13.526;2023-04-24T11:58:13;95429.03;;;11.03;71.29
66479;BME280;53294;47.912;13.526;2023-04-24T12:00:40;95428.59;;;11.09;71.70
66479;BME280;53294;47.912;13.526;2023-04-24T12:03:11;95430.94;;;11.28;71.47
66479;BME280;53294;47.912;13.526;2023-04-24T12:05:39;95425.59;;;11.11;71.70
66479;BME280;53294;47.912;13.526;2023-04-24T12:08:06;95424.94;;;11.31;71.56
66479;BME280;53294;47.912;13.526;2023-04-24T12:10:33;95428.22;;;11.55;71.68
66479;BME280;53294;47.912;13.526;2023-04-24T12:13:01;95420.75;;;11.78;71.02
66479;BME280;53294;47.912;13.526;2023-04-24T12:15:28;95421.66;;;11.82;72.10
66479;BME280;53294;47.912;13.526;2023-04-24T12:17:55;95416.00;;;12.22;71.80
66479;BME280;53294;47.912;13.526;2023-04-24T12:20:30;95409.69;;;12.48;72.44
66479;BME280;53294;47.912;13.526;2023-04-24T12:22:59;95410.34;;;12.45;70.39
66479;BME280;53294;47.912;13.526;2023-04-24T12:25:33;95407.25;;;12.55;70.37
66479;BME280;53294;47.912;13.526;2023-04-24T12:30:31;95410.13;;;12.80;70.37
66479;BME280;53294;47.912;13.526;2023-04-24T12:32:59;95407.09;;;12.60;67.38
66479;BME280;53294;47.912;13.526;2023-04-24T12:35:28;95408.75;;;12.44;66.62
66479;BME280;53294;47.912;13.526;2023-04-24T12:37:55;95398.84;;;12.35;68.59
66479;BME280;53294;47.912;13.526;2023-04-24T12:40:22;95402.13;;;12.41;67.00
66479;BME280;53294;47.912;13.526;2023-04-24T12:42:51;95399.91;;;12.43;67.12
66479;BME280;53294;47.912;13.526;2023-04-24T12:45:18;95399.66;;;12.27;66.85
66479;BME280;53294;47.912;13.526;2023-04-24T12:47:46;95409.69;;;12.48;66.71
66479;BME280;53294;47.912;13.526;2023-04-24T12:50:14;95405.09;;;12.48;66.72
66479;BME280;53294;47.912;13.526;2023-04-24T12:52:41;95401.06;;;12.63;65.60
66479;BME280;53294;47.912;13.526;2023-04-24T12:55:09;95400.00;;;12.55;65.85
66479;BME280;53294;47.912;13.526;2023-04-24T12:57:37;95399.50;;;12.53;67.00
66479;BME280;53294;47.912;13.526;2023-04-24T13:00:07;95391.22;;;12.37;66.18
66479;BME280;53294;47.912;13.526;2023-04-24T13:02:34;95402.63;;;12.64;66.71
66479;BME280;53294;47.912;13.526;2023-04-24T13:05:02;95400.00;;;12.98;65.43